メインページ
METAR-TAF:

METAR-TAF

空港 :

アーバーダーン空港

アーバーダーン, イラン

緯度: 30-22N, 経度: 048-15E, 海抜: 3m

現時点の気象観測

当レポートは1時間11分前の17:00(UTC)に作成
東/北東の風 14kt
気温 16°C
湿度 94%
気圧 1016 hPa
視程: 6000m
高度3000ftの雲は散在している, 積乱雲.
高度3500ftの雲はほとんどない
高度8000ftの曇り

METAR: OIAA 171700Z 06014KT 6000 SCT030CB FEW035 OVC080 16/15 Q1016

時間: 21:41 (18:11 UTC)

予報

当レポートは6時間41分前の11:30(UTC)に作成
予報は17日の 12時(UTC)から 18日の 18時(UTC)まで有効
南東の風 8kt
視程: 7000m
高度3500ftの雲はほとんどない, 積乱雲.
高度4000ftの雲は散在している
高度8000ftの千切れ雲あり
17日の 12時(UTC)から 17日の 15時(UTC)まで一時的に
の風 16kt、最大30ktの突風を伴う
視程: 2000m
高度3000ftの雲は散在している, 積乱雲.
高度3500ftの雲は散在している
高度8000ftの曇り
激しい雷雨, 雨
17日の 18時(UTC)から 18日の 12時(UTC)まで一時的に
北東の風 8kt
視程: 3000m
高度3000ftの雲はほとんどない, 積乱雲.
高度3500ftの雲は散在している
高度9000ftの千切れ雲あり
激しい雷雨, 雨
18日の 07時(UTC)から 08日の 09時(UTC)まで徐々に
高度3500ftの雲は散在している
高度10000ftの雲は散在している

TAF: OIAA 171130Z 1712/1818 14008KT 7000 FEW035CB SCT040 BKN080 TEMPO 1712/1715 08016G30KT 2000 TSRA SCT030CB SCT035 OVC080 TEMPO 1718/1812 05008KT 3000 TSRA FEW030CB SCT035 BKN090 BECMG 1807/0809 SCT035 SCT100

4,000以上の空港の気象観測と天気予報(METAR報とTAF報)

利用可能な観測所は地図上に黄色い丸と赤い丸で示す。

丸の上にカーソルを重ねると観測所名を参照できる。

次にクリックすると気象観測と天気予報を参照できる。

マップの切り替え:黒色「×」印の緑ボタンをクリックして拡大、「-」印の緑ボタンをクリックして縮小、緑色の三角印をクリックして隣りの地図に切り替え


METAR-TAF: